createdAt,value
2017-08-18T00:01:31.148Z,11.53
2017-08-18T00:03:57.453Z,12.30
2017-08-18T00:06:23.745Z,12.10
2017-08-18T00:08:50.033Z,15.50
2017-08-18T00:11:16.305Z,11.80
2017-08-18T00:13:42.592Z,11.17
2017-08-18T00:16:09.785Z,10.50
2017-08-18T00:18:36.054Z,10.73
2017-08-18T00:21:02.378Z,10.73
2017-08-18T00:23:28.659Z,12.07
2017-08-18T00:25:54.945Z,11.67
2017-08-18T00:28:21.213Z,11.30
2017-08-18T00:30:48.482Z,10.87
2017-08-18T00:33:14.782Z,10.63
2017-08-18T00:35:41.131Z,11.00
2017-08-18T00:38:07.446Z,11.87
2017-08-18T00:40:33.784Z,11.47
2017-08-18T00:43:00.112Z,10.40
2017-08-18T00:45:26.420Z,10.10
2017-08-18T00:47:54.839Z,9.90
2017-08-18T00:50:21.101Z,9.23
2017-08-18T00:52:47.392Z,11.33
2017-08-18T00:55:13.693Z,11.40
2017-08-18T00:57:40.008Z,10.23
2017-08-18T01:00:06.270Z,11.27
2017-08-18T01:02:32.568Z,11.97
2017-08-18T01:04:58.853Z,12.70
2017-08-18T01:07:25.166Z,13.60
2017-08-18T01:09:51.478Z,12.97
2017-08-18T01:12:17.788Z,12.90
2017-08-18T01:14:44.048Z,12.83
2017-08-18T01:17:10.340Z,12.30
2017-08-18T01:19:36.659Z,13.07
2017-08-18T01:22:02.901Z,10.83
2017-08-18T01:24:29.213Z,13.00
2017-08-18T01:26:55.478Z,12.87
2017-08-18T01:29:21.781Z,12.83
2017-08-18T01:31:48.060Z,12.93
2017-08-18T01:34:14.410Z,12.70
2017-08-18T01:36:40.669Z,13.00
2017-08-18T01:39:06.963Z,13.67
2017-08-18T01:41:33.248Z,12.70
2017-08-18T01:43:59.517Z,12.00
2017-08-18T01:46:25.809Z,11.77
2017-08-18T01:48:52.078Z,11.90
2017-08-18T01:51:18.377Z,12.07
2017-08-18T01:53:44.639Z,12.77
2017-08-18T01:56:10.894Z,13.03
2017-08-18T01:58:37.183Z,12.17
2017-08-18T02:01:11.984Z,12.30
2017-08-18T02:03:38.243Z,12.60
2017-08-18T02:06:04.924Z,11.27
2017-08-18T02:08:31.206Z,12.73
2017-08-18T02:10:57.469Z,11.50
2017-08-18T02:13:23.749Z,11.33
2017-08-18T02:15:50.014Z,11.00
2017-08-18T02:18:16.302Z,11.40
2017-08-18T02:20:42.580Z,10.30
2017-08-18T02:23:09.330Z,9.90
2017-08-18T02:25:35.590Z,12.20
2017-08-18T02:28:01.858Z,10.80
2017-08-18T02:30:28.145Z,9.97
2017-08-18T02:32:54.430Z,10.10
2017-08-18T02:35:20.712Z,11.00
2017-08-18T02:37:46.972Z,11.10
2017-08-18T02:40:14.718Z,10.07
2017-08-18T02:42:41.890Z,13.10
2017-08-18T02:45:08.179Z,11.53
2017-08-18T02:47:34.447Z,11.77
2017-08-18T02:50:00.987Z,10.67
2017-08-18T02:52:27.253Z,13.40
2017-08-18T02:54:53.534Z,13.63
2017-08-18T02:57:19.796Z,14.30
2017-08-18T02:59:46.061Z,13.77
2017-08-18T03:02:12.365Z,14.30
2017-08-18T03:04:38.624Z,15.73
2017-08-18T03:07:04.909Z,12.60
2017-08-18T03:09:31.168Z,13.00
2017-08-18T03:11:57.438Z,16.50
2017-08-18T03:14:23.722Z,15.93
2017-08-18T03:16:49.994Z,17.53
2017-08-18T03:19:16.291Z,22.73
2017-08-18T03:21:42.559Z,15.27
2017-08-18T03:24:08.893Z,20.13
2017-08-18T03:26:35.168Z,15.63
2017-08-18T03:29:01.443Z,14.53
2017-08-18T03:31:27.713Z,12.70
2017-08-18T03:33:53.972Z,14.93
2017-08-18T03:36:20.269Z,13.47
2017-08-18T03:38:46.533Z,15.80
2017-08-18T03:41:12.828Z,17.03
2017-08-18T03:43:39.091Z,17.23
2017-08-18T03:46:05.609Z,15.97
2017-08-18T03:48:31.886Z,14.57
2017-08-18T03:50:58.133Z,14.20
2017-08-18T03:53:24.465Z,14.77
2017-08-18T03:55:50.729Z,14.17
2017-08-18T03:58:17.007Z,14.30
2017-08-18T04:00:47.707Z,14.53
2017-08-18T04:03:13.971Z,14.80
2017-08-18T04:05:42.504Z,13.87
2017-08-18T04:08:08.829Z,15.30
2017-08-18T04:10:35.109Z,16.27
2017-08-18T04:13:01.386Z,14.53
2017-08-18T04:15:27.677Z,13.50
2017-08-18T04:17:53.933Z,13.83
2017-08-18T04:20:20.221Z,13.43
2017-08-18T04:22:46.490Z,13.80
2017-08-18T04:25:12.806Z,13.20
2017-08-18T04:27:39.072Z,16.00
2017-08-18T04:30:05.685Z,14.20
2017-08-18T04:32:31.952Z,13.60
2017-08-18T04:34:58.247Z,12.70
2017-08-18T04:37:24.525Z,14.00
2017-08-18T04:39:50.801Z,13.00
2017-08-18T04:42:17.105Z,14.23
2017-08-18T04:44:43.376Z,14.03
2017-08-18T04:47:10.244Z,13.63
2017-08-18T04:49:36.504Z,14.93
2017-08-18T04:52:02.759Z,15.93
2017-08-18T04:54:29.083Z,13.37
2017-08-18T04:56:55.354Z,14.03
2017-08-18T04:59:21.620Z,15.80
2017-08-18T05:01:47.884Z,14.83
2017-08-18T05:04:14.159Z,13.73
2017-08-18T05:06:40.434Z,13.97
2017-08-18T05:09:06.740Z,14.47
2017-08-18T05:11:33.047Z,13.83
2017-08-18T05:13:59.323Z,14.23
2017-08-18T05:16:25.598Z,15.87
2017-08-18T05:18:51.870Z,14.83
2017-08-18T05:21:18.472Z,14.83
2017-08-18T05:23:44.759Z,14.87
2017-08-18T05:26:11.045Z,13.83
2017-08-18T05:28:37.316Z,14.50
2017-08-18T05:31:03.599Z,13.93
2017-08-18T05:33:29.890Z,15.63
2017-08-18T05:35:56.173Z,13.93
2017-08-18T05:38:23.347Z,16.97
2017-08-18T05:40:49.610Z,14.90
2017-08-18T05:43:15.922Z,15.53
2017-08-18T05:45:42.189Z,15.00
2017-08-18T05:48:08.469Z,15.73
2017-08-18T05:50:34.745Z,14.17
2017-08-18T05:53:01.024Z,15.57
2017-08-18T05:55:27.292Z,14.87
2017-08-18T05:57:53.556Z,15.57
2017-08-18T06:00:19.842Z,16.70
2017-08-18T06:02:46.428Z,15.90
2017-08-18T06:05:12.747Z,14.80
2017-08-18T06:07:38.996Z,16.13
2017-08-18T06:10:05.333Z,14.50
2017-08-18T06:12:31.605Z,14.67
2017-08-18T06:14:57.880Z,14.60
2017-08-18T06:17:25.157Z,15.70
2017-08-18T06:19:51.437Z,15.30
2017-08-18T06:22:17.701Z,13.50
2017-08-18T06:24:43.998Z,13.63
2017-08-18T06:27:10.291Z,13.20
2017-08-18T06:29:37.002Z,13.73
2017-08-18T06:32:03.274Z,15.30
2017-08-18T06:34:29.572Z,15.63
2017-08-18T06:36:55.868Z,15.20
2017-08-18T06:39:22.145Z,15.63
2017-08-18T06:41:48.442Z,14.80
2017-08-18T06:44:14.712Z,14.40
2017-08-18T06:46:40.991Z,14.13
2017-08-18T06:49:07.293Z,15.40
2017-08-18T06:51:33.597Z,14.27
2017-08-18T06:53:59.860Z,15.67
2017-08-18T06:56:26.146Z,14.07
2017-08-18T06:58:52.447Z,15.27
2017-08-18T07:01:18.713Z,15.33
2017-08-18T07:03:45.002Z,13.27
2017-08-18T07:06:11.278Z,14.57
2017-08-18T07:08:37.576Z,13.97
2017-08-18T07:11:05.413Z,13.73
2017-08-18T07:13:31.677Z,14.53
2017-08-18T07:15:59.599Z,13.70
2017-08-18T07:18:26.484Z,12.27
2017-08-18T07:21:03.373Z,13.93
2017-08-18T07:23:32.658Z,13.73
2017-08-18T07:25:59.500Z,14.60
2017-08-18T07:28:26.346Z,13.93
2017-08-18T07:30:56.068Z,15.03
2017-08-18T07:33:22.797Z,14.00
2017-08-18T07:35:49.078Z,15.20
2017-08-18T07:38:16.287Z,13.10
2017-08-18T07:40:42.575Z,12.90
2017-08-18T07:43:08.859Z,14.47
2017-08-18T07:45:37.243Z,13.87
2017-08-18T07:48:04.351Z,13.20
2017-08-18T07:50:33.854Z,13.57
2017-08-18T07:53:00.130Z,14.70
2017-08-18T07:55:26.389Z,13.20
2017-08-18T07:57:52.672Z,11.43
2017-08-18T08:00:20.520Z,13.30
2017-08-18T08:02:46.825Z,11.07
2017-08-18T08:05:13.090Z,10.63
2017-08-18T08:07:39.381Z,11.10
2017-08-18T08:10:05.657Z,12.03
2017-08-18T08:12:31.935Z,10.80
2017-08-18T08:14:58.197Z,10.50
2017-08-18T08:17:24.485Z,10.23
2017-08-18T08:19:50.746Z,9.83
2017-08-18T08:22:17.024Z,10.93
2017-08-18T08:24:43.273Z,12.17
2017-08-18T08:27:09.567Z,10.57
2017-08-18T08:29:36.172Z,11.97
2017-08-18T08:32:02.442Z,12.20
2017-08-18T08:34:28.718Z,11.80
2017-08-18T08:36:55.059Z,13.07
2017-08-18T08:39:21.351Z,13.70
2017-08-18T08:41:47.632Z,12.37
2017-08-18T08:44:13.891Z,10.60
2017-08-18T08:46:40.182Z,10.57
2017-08-18T08:49:06.461Z,12.30
2017-08-18T08:51:32.734Z,12.80
2017-08-18T08:53:58.996Z,12.37
2017-08-18T08:56:25.498Z,9.70
2017-08-18T08:58:51.849Z,10.40
2017-08-18T09:01:18.163Z,10.77
2017-08-18T09:03:44.467Z,9.10
2017-08-18T09:06:10.748Z,10.77
2017-08-18T09:08:37.025Z,10.67
2017-08-18T09:11:03.307Z,10.90
2017-08-18T09:13:29.905Z,10.57
2017-08-18T09:15:56.241Z,10.40
2017-08-18T09:18:22.541Z,10.37
2017-08-18T09:20:48.812Z,10.53
2017-08-18T09:23:15.882Z,9.53
2017-08-18T09:25:42.158Z,9.50
2017-08-18T09:28:09.565Z,10.40
2017-08-18T09:30:35.826Z,9.63
2017-08-18T09:33:02.149Z,8.67
2017-08-18T09:35:28.466Z,9.17
2017-08-18T09:37:54.730Z,8.63
2017-08-18T09:40:21.061Z,9.20
2017-08-18T09:42:47.342Z,7.57
2017-08-18T09:45:13.967Z,7.13
2017-08-18T09:47:40.264Z,9.47
2017-08-18T09:50:18.727Z,7.87
2017-08-18T09:52:57.195Z,9.27
2017-08-18T10:08:51.873Z,8.17
2017-08-18T10:11:18.155Z,7.07
2017-08-18T10:13:44.431Z,7.33
2017-08-18T10:16:10.703Z,7.47
2017-08-18T10:18:37.018Z,11.70
2017-08-18T10:21:03.318Z,8.03
2017-08-18T10:23:29.589Z,7.87
2017-08-18T10:25:55.862Z,9.33
2017-08-18T10:28:22.173Z,9.50
2017-08-18T10:30:48.432Z,8.83
2017-08-18T10:33:15.151Z,9.70
2017-08-18T10:35:41.493Z,13.20
2017-08-18T10:38:07.778Z,8.93
2017-08-18T10:40:34.057Z,8.60
2017-08-18T10:43:00.315Z,9.50
2017-08-18T10:45:26.620Z,9.20
2017-08-18T10:47:53.167Z,8.73
2017-08-18T10:50:19.448Z,9.67
2017-08-18T10:52:45.710Z,8.67
2017-08-18T10:55:11.990Z,8.27
2017-08-18T10:57:38.312Z,9.10
2017-08-18T11:00:04.581Z,10.13
2017-08-18T11:02:30.892Z,8.30
2017-08-18T11:04:57.162Z,7.77
2017-08-18T11:07:23.509Z,9.83
2017-08-18T11:09:49.774Z,8.03
2017-08-18T11:12:16.386Z,7.40
2017-08-18T11:14:42.656Z,8.30
2017-08-18T11:17:08.955Z,8.20
2017-08-18T11:19:35.283Z,7.63
2017-08-18T11:22:01.572Z,8.20
2017-08-18T11:24:27.882Z,7.43
2017-08-18T11:26:54.150Z,8.00
2017-08-18T11:29:20.458Z,7.17
2017-08-18T11:31:47.601Z,7.83
2017-08-18T11:34:13.922Z,6.93
2017-08-18T11:36:40.247Z,7.33
2017-08-18T11:39:06.952Z,7.47
2017-08-18T11:41:33.289Z,7.30
2017-08-18T11:43:59.574Z,7.97
2017-08-18T11:46:25.865Z,6.73
2017-08-18T11:48:52.197Z,7.00
2017-08-18T11:51:18.504Z,5.80
2017-08-18T11:53:44.782Z,6.17
2017-08-18T11:56:11.091Z,6.13
2017-08-18T11:58:37.357Z,5.60
2017-08-18T12:01:03.641Z,6.53
2017-08-18T12:03:29.921Z,5.80
2017-08-18T12:05:56.213Z,7.00
2017-08-18T12:08:22.515Z,6.40
2017-08-18T12:10:49.138Z,6.00
2017-08-18T12:13:15.428Z,6.20
2017-08-18T12:15:41.704Z,5.60
2017-08-18T12:18:08.935Z,7.00
2017-08-18T12:20:35.239Z,6.23
2017-08-18T12:23:01.517Z,5.40
2017-08-18T12:25:40.118Z,6.20
2017-08-18T12:28:07.412Z,5.90
2017-08-18T12:30:33.688Z,5.27
2017-08-18T12:33:00.040Z,6.47
2017-08-18T12:35:27.290Z,5.50
2017-08-18T12:37:53.595Z,5.97
2017-08-18T12:40:19.892Z,5.20
2017-08-18T12:42:46.164Z,5.27
2017-08-18T12:45:12.506Z,5.37
2017-08-18T12:47:38.805Z,5.87
2017-08-18T12:50:05.154Z,4.97
2017-08-18T12:52:31.473Z,5.30
2017-08-18T12:54:57.772Z,5.70
2017-08-18T12:57:24.050Z,5.23
2017-08-18T12:59:50.319Z,4.93
2017-08-18T13:02:16.596Z,5.40
2017-08-18T13:04:47.720Z,5.17
2017-08-18T13:07:14.035Z,5.30
2017-08-18T13:09:40.292Z,4.75
2017-08-18T13:12:07.152Z,4.70
2017-08-18T13:14:33.438Z,5.35
2017-08-18T13:16:59.779Z,4.30
2017-08-18T13:19:26.053Z,5.68
2017-08-18T13:21:52.699Z,5.37
2017-08-18T13:24:19.004Z,4.60
2017-08-18T13:26:45.297Z,4.97
2017-08-18T13:29:11.580Z,4.75
2017-08-18T13:31:37.903Z,4.87
2017-08-18T13:34:04.199Z,4.90
2017-08-18T13:36:30.505Z,5.10
2017-08-18T13:38:56.833Z,5.05
2017-08-18T13:41:23.114Z,4.55
2017-08-18T13:43:49.663Z,4.72
2017-08-18T13:46:15.937Z,4.47
2017-08-18T13:48:42.194Z,4.50
2017-08-18T13:51:08.495Z,4.40
2017-08-18T13:53:34.811Z,4.72
2017-08-18T13:56:01.959Z,4.18
2017-08-18T13:58:28.231Z,4.43
2017-08-18T14:00:54.529Z,4.70
2017-08-18T14:03:20.801Z,4.22
2017-08-18T14:05:47.107Z,4.22
2017-08-18T14:08:13.472Z,4.70
2017-08-18T14:10:40.116Z,4.37
2017-08-18T14:13:06.406Z,3.50
2017-08-18T14:15:32.677Z,3.93
2017-08-18T14:17:58.971Z,3.77
2017-08-18T14:20:25.236Z,3.70
2017-08-18T14:22:51.518Z,3.43
2017-08-18T14:38:35.458Z,3.77
2017-08-18T14:41:01.744Z,2.93
2017-08-18T14:43:28.252Z,3.20
2017-08-18T14:45:54.553Z,3.80
2017-08-18T14:48:20.826Z,3.30
2017-08-18T14:50:47.129Z,3.47
2017-08-18T14:53:13.682Z,3.63
2017-08-18T14:55:39.938Z,3.13
2017-08-18T14:58:06.230Z,3.60
2017-08-18T15:00:32.515Z,3.70
2017-08-18T15:02:58.845Z,3.50
2017-08-18T15:05:25.151Z,2.80
2017-08-18T15:07:51.436Z,2.70
2017-08-18T15:10:17.726Z,3.10
2017-08-18T15:12:43.993Z,3.60
2017-08-18T15:15:10.663Z,3.50
2017-08-18T15:17:36.959Z,3.70
2017-08-18T15:20:03.234Z,3.27
2017-08-18T15:22:29.521Z,3.30
2017-08-18T15:24:55.835Z,3.40
2017-08-18T15:27:22.127Z,3.90
2017-08-18T15:29:49.170Z,4.10
2017-08-18T15:32:15.461Z,9.10
2017-08-18T15:34:41.763Z,3.70
2017-08-18T15:37:08.348Z,3.50
2017-08-18T15:39:34.647Z,3.73
2017-08-18T15:42:00.921Z,3.57
2017-08-18T15:44:27.256Z,4.17
2017-08-18T15:46:53.533Z,6.20
2017-08-18T15:49:19.831Z,3.77
2017-08-18T15:51:46.153Z,3.90
2017-08-18T15:54:12.431Z,3.10
2017-08-18T15:56:38.718Z,4.67
2017-08-18T15:59:05.422Z,4.50
2017-08-18T16:01:31.696Z,4.50
2017-08-18T16:03:57.966Z,4.60
2017-08-18T16:06:24.273Z,4.10
2017-08-18T16:08:50.548Z,3.87
2017-08-18T16:11:16.886Z,4.40
2017-08-18T16:13:43.152Z,4.43
2017-08-18T16:16:09.428Z,4.87
2017-08-18T16:18:35.715Z,4.27
2017-08-18T16:21:02.007Z,6.13
2017-08-18T16:23:28.298Z,9.27
2017-08-18T16:25:54.947Z,5.40
2017-08-18T16:28:21.286Z,10.33
2017-08-18T16:30:47.552Z,5.03
2017-08-18T16:33:14.880Z,7.60
2017-08-18T16:35:41.140Z,10.63
2017-08-18T16:38:07.432Z,6.90
2017-08-18T16:40:33.682Z,4.27
2017-08-18T16:42:59.976Z,4.23
2017-08-18T16:45:26.274Z,3.70
2017-08-18T16:47:52.621Z,4.00
2017-08-18T16:50:18.910Z,3.73
2017-08-18T16:52:45.201Z,4.40
2017-08-18T16:55:11.526Z,5.17
2017-08-18T16:57:38.222Z,4.57
2017-08-18T17:00:04.690Z,5.77
2017-08-18T17:02:31.066Z,5.53
2017-08-18T17:04:57.345Z,6.70
2017-08-18T17:07:23.631Z,4.20
2017-08-18T17:09:49.938Z,5.33
2017-08-18T17:12:16.237Z,3.40
2017-08-18T17:14:42.565Z,7.60
2017-08-18T17:17:08.848Z,6.97
2017-08-18T17:19:35.149Z,5.30
2017-08-18T17:22:01.442Z,6.43
2017-08-18T17:24:28.529Z,5.03
2017-08-18T17:26:55.203Z,4.07
2017-08-18T17:29:21.489Z,4.60
2017-08-18T17:31:47.755Z,6.70
2017-08-18T17:34:14.027Z,5.80
2017-08-18T17:36:40.389Z,2.63
2017-08-18T17:39:06.680Z,2.57
2017-08-18T17:41:32.945Z,6.50
2017-08-18T17:43:59.226Z,5.10
2017-08-18T17:46:26.577Z,1.73
2017-08-18T17:48:52.882Z,4.23
2017-08-18T17:51:19.185Z,2.43
2017-08-18T17:53:45.489Z,1.47
2017-08-18T17:56:11.790Z,2.30
2017-08-18T17:58:38.089Z,1.10
2017-08-18T18:01:04.686Z,4.47
2017-08-18T18:03:31.037Z,2.07
2017-08-18T18:05:57.355Z,5.53
2017-08-18T18:08:23.977Z,3.33
2017-08-18T18:10:50.259Z,4.60
2017-08-18T18:13:16.508Z,7.63
2017-08-18T18:15:51.586Z,3.33
2017-08-18T18:18:17.867Z,6.03
2017-08-18T18:20:44.170Z,6.90
2017-08-18T18:23:10.430Z,4.70
2017-08-18T18:25:36.725Z,33.80
2017-08-18T18:28:03.104Z,9.30
2017-08-18T18:30:30.499Z,3.87
2017-08-18T18:32:56.773Z,1.90
2017-08-18T18:35:23.087Z,8.30
2017-08-18T18:37:49.683Z,2.47
2017-08-18T18:40:16.027Z,2.70
2017-08-18T18:42:42.413Z,5.97
2017-08-18T18:45:08.790Z,4.93
2017-08-18T18:47:35.100Z,4.00
2017-08-18T18:50:01.397Z,4.67
2017-08-18T18:52:27.729Z,2.27
2017-08-18T18:54:54.366Z,1.70
2017-08-18T18:57:20.667Z,2.10
2017-08-18T18:59:47.005Z,3.67
2017-08-18T19:02:13.310Z,1.87
2017-08-18T19:04:39.647Z,2.33
2017-08-18T19:07:05.992Z,4.10
2017-08-18T19:09:32.279Z,3.03
2017-08-18T19:11:59.616Z,2.03
2017-08-18T19:14:25.926Z,1.50
2017-08-18T19:16:52.611Z,3.67
2017-08-18T19:19:18.889Z,2.83
2017-08-18T19:21:45.166Z,2.60
2017-08-18T19:24:12.067Z,3.37
2017-08-18T19:26:38.815Z,1.90
2017-08-18T19:29:06.567Z,1.90
2017-08-18T19:31:32.887Z,3.20
2017-08-18T19:33:59.787Z,3.13
2017-08-18T19:36:26.147Z,3.33
2017-08-18T19:38:52.438Z,2.33
2017-08-18T19:41:19.225Z,2.23
2017-08-18T19:43:46.170Z,2.57
2017-08-18T19:46:12.457Z,3.00
2017-08-18T19:48:38.816Z,1.23
2017-08-18T19:51:05.104Z,3.00
2017-08-18T19:53:31.415Z,1.60
2017-08-18T19:55:57.717Z,2.00
2017-08-18T19:58:25.411Z,1.80
2017-08-18T20:00:51.757Z,2.23
2017-08-18T20:03:21.029Z,3.10
2017-08-18T20:05:47.341Z,3.37
2017-08-18T20:08:13.656Z,1.63
2017-08-18T20:10:39.940Z,4.43
2017-08-18T20:13:06.253Z,2.10
2017-08-18T20:15:32.585Z,2.90
2017-08-18T20:17:58.954Z,2.40
2017-08-18T20:20:25.290Z,2.67
2017-08-18T20:22:51.625Z,2.77
2017-08-18T20:25:17.912Z,4.20
2017-08-18T20:27:44.249Z,2.13
2017-08-18T20:30:10.559Z,3.17
2017-08-18T20:32:36.820Z,2.40
2017-08-18T20:35:03.936Z,2.80
2017-08-18T20:37:30.282Z,2.33
2017-08-18T20:39:56.617Z,2.90
2017-08-18T20:42:22.958Z,2.67
2017-08-18T20:44:49.291Z,5.53
2017-08-18T20:47:16.329Z,3.50
2017-08-18T20:49:42.993Z,4.57
2017-08-18T20:52:09.306Z,4.67
2017-08-18T20:54:35.604Z,2.70
2017-08-18T20:57:01.876Z,1.53
2017-08-18T20:59:28.214Z,1.80
2017-08-18T21:01:54.516Z,1.73
2017-08-18T21:04:20.814Z,2.13
2017-08-18T21:06:47.415Z,1.20
2017-08-18T21:09:13.761Z,4.10
2017-08-18T21:11:40.967Z,3.07
2017-08-18T21:14:07.279Z,3.00
2017-08-18T21:16:33.579Z,2.03
2017-08-18T21:19:00.562Z,2.03
2017-08-18T21:21:26.841Z,2.17
2017-08-18T21:23:53.122Z,3.70
2017-08-18T21:26:19.462Z,2.17
2017-08-18T21:28:45.758Z,1.80
2017-08-18T21:31:12.069Z,4.13
2017-08-18T21:33:38.330Z,2.60
2017-08-18T21:36:04.663Z,3.00
2017-08-18T21:38:30.946Z,2.27
2017-08-18T21:40:57.529Z,2.40
2017-08-18T21:46:07.494Z,5.67
2017-08-18T21:48:33.748Z,2.73
2017-08-18T21:51:00.047Z,2.77
2017-08-18T21:53:26.335Z,2.70
2017-08-18T21:55:52.648Z,2.43
2017-08-18T21:58:18.933Z,2.70
2017-08-18T22:00:45.229Z,3.87
2017-08-18T22:03:11.517Z,2.70
2017-08-18T22:05:37.836Z,2.10
2017-08-18T22:08:04.106Z,2.23
2017-08-18T22:10:30.726Z,2.30
2017-08-18T22:12:57.013Z,1.83
2017-08-18T22:15:23.281Z,2.00
2017-08-18T22:17:49.589Z,1.97
2017-08-18T22:20:15.848Z,2.30
2017-08-18T22:22:42.147Z,2.83
2017-08-18T22:25:08.420Z,2.63
2017-08-18T22:27:34.715Z,3.07
2017-08-18T22:30:01.012Z,2.40
2017-08-18T22:32:27.354Z,4.83
2017-08-18T22:34:53.695Z,2.60
2017-08-18T22:37:20.092Z,2.87
2017-08-18T22:39:46.438Z,2.53
2017-08-18T22:42:12.753Z,3.00
2017-08-18T22:44:39.079Z,1.70
2017-08-18T22:47:05.426Z,2.80
2017-08-18T22:49:31.734Z,4.20
2017-08-18T22:51:58.073Z,3.33
2017-08-18T22:54:24.415Z,3.43
2017-08-18T22:56:50.731Z,2.63
2017-08-18T22:59:17.009Z,2.40
2017-08-18T23:01:43.311Z,2.93
2017-08-18T23:04:09.599Z,2.60
2017-08-18T23:06:36.155Z,4.27
2017-08-18T23:09:02.501Z,2.10
2017-08-18T23:11:28.770Z,2.60
2017-08-18T23:13:55.068Z,4.10
2017-08-18T23:16:21.367Z,2.60
2017-08-18T23:18:47.657Z,3.00
2017-08-18T23:21:13.933Z,1.67
2017-08-18T23:23:40.223Z,1.87
2017-08-18T23:26:06.518Z,1.93
2017-08-18T23:28:32.824Z,2.47
2017-08-18T23:30:59.109Z,2.00
2017-08-18T23:33:25.423Z,1.63
2017-08-18T23:35:51.693Z,3.90
2017-08-18T23:38:17.974Z,1.90
2017-08-18T23:40:44.263Z,3.67
2017-08-18T23:43:12.104Z,3.13
2017-08-18T23:45:38.944Z,2.20
2017-08-18T23:48:08.284Z,3.03
2017-08-18T23:50:35.778Z,3.50
2017-08-18T23:53:03.019Z,7.30
2017-08-18T23:55:29.329Z,7.17
2017-08-18T23:57:55.690Z,3.70
